sensor_id;sensor_type;location;lat;lon;timestamp;pressure;altitude;pressure_sealevel;temperature;humidity
41334;BME280;27078;46.428;6.256;2023-06-22T00:01:01;96434.19;;;19.69;100.00
41334;BME280;27078;46.428;6.256;2023-06-22T00:03:27;96432.28;;;19.63;100.00
41334;BME280;27078;46.428;6.256;2023-06-22T00:05:53;96435.75;;;19.57;100.00
41334;BME280;27078;46.428;6.256;2023-06-22T00:08:19;96436.78;;;19.56;100.00
41334;BME280;27078;46.428;6.256;2023-06-22T00:10:45;96433.88;;;19.58;100.00
41334;BME280;27078;46.428;6.256;2023-06-22T00:13:11;96433.97;;;19.64;100.00
41334;BME280;27078;46.428;6.256;2023-06-22T00:15:38;96433.19;;;19.70;100.00
41334;BME280;27078;46.428;6.256;2023-06-22T00:18:05;96425.59;;;19.74;100.00
41334;BME280;27078;46.428;6.256;2023-06-22T00:20:31;96428.94;;;19.76;100.00
41334;BME280;27078;46.428;6.256;2023-06-22T00:22:58;96418.66;;;19.80;100.00
41334;BME280;27078;46.428;6.256;2023-06-22T00:25:25;96418.69;;;19.86;100.00
41334;BME280;27078;46.428;6.256;2023-06-22T00:27:50;96415.06;;;19.94;100.00
41334;BME280;27078;46.428;6.256;2023-06-22T00:30:17;96422.31;;;20.00;100.00
41334;BME280;27078;46.428;6.256;2023-06-22T00:32:44;96419.41;;;20.02;100.00
41334;BME280;27078;46.428;6.256;2023-06-22T00:35:10;96423.53;;;20.04;100.00
41334;BME280;27078;46.428;6.256;2023-06-22T00:37:36;96406.47;;;20.05;100.00
41334;BME280;27078;46.428;6.256;2023-06-22T00:40:02;96403.16;;;20.03;100.00
41334;BME280;27078;46.428;6.256;2023-06-22T00:42:32;96394.25;;;19.96;100.00
41334;BME280;27078;46.428;6.256;2023-06-22T00:44:58;96392.13;;;19.91;100.00
41334;BME280;27078;46.428;6.256;2023-06-22T00:47:23;96385.31;;;19.89;100.00
41334;BME280;27078;46.428;6.256;2023-06-22T00:49:49;96390.03;;;19.87;100.00
41334;BME280;27078;46.428;6.256;2023-06-22T00:52:17;96386.94;;;19.83;100.00
41334;BME280;27078;46.428;6.256;2023-06-22T00:54:46;96390.00;;;19.80;100.00
41334;BME280;27078;46.428;6.256;2023-06-22T00:57:13;96402.31;;;19.75;100.00
41334;BME280;27078;46.428;6.256;2023-06-22T00:59:42;96397.72;;;19.68;100.00
41334;BME280;27078;46.428;6.256;2023-06-22T01:02:08;96387.78;;;19.62;100.00
41334;BME280;27078;46.428;6.256;2023-06-22T01:04:37;96383.25;;;19.63;100.00
41334;BME280;27078;46.428;6.256;2023-06-22T01:07:13;96393.78;;;19.64;100.00
41334;BME280;27078;46.428;6.256;2023-06-22T01:09:54;96375.19;;;19.56;100.00
41334;BME280;27078;46.428;6.256;2023-06-22T01:12:22;96373.47;;;19.48;100.00
41334;BME280;27078;46.428;6.256;2023-06-22T01:14:55;96363.72;;;19.41;100.00
41334;BME280;27078;46.428;6.256;2023-06-22T01:17:23;96375.06;;;19.43;100.00
41334;BME280;27078;46.428;6.256;2023-06-22T01:19:51;96364.75;;;19.40;100.00
41334;BME280;27078;46.428;6.256;2023-06-22T01:22:25;96351.31;;;19.33;100.00
41334;BME280;27078;46.428;6.256;2023-06-22T01:27:32;96360.56;;;19.30;100.00
41334;BME280;27078;46.428;6.256;2023-06-22T01:29:59;96359.53;;;19.31;100.00
41334;BME280;27078;46.428;6.256;2023-06-22T01:32:34;96354.16;;;19.31;100.00
41334;BME280;27078;46.428;6.256;2023-06-22T01:35:03;96344.69;;;19.29;100.00
41334;BME280;27078;46.428;6.256;2023-06-22T01:37:29;96355.38;;;19.29;100.00
41334;BME280;27078;46.428;6.256;2023-06-22T01:39:57;96345.50;;;19.29;100.00
41334;BME280;27078;46.428;6.256;2023-06-22T01:42:24;96336.97;;;19.19;100.00
41334;BME280;27078;46.428;6.256;2023-06-22T01:44:52;96339.22;;;19.16;100.00
41334;BME280;27078;46.428;6.256;2023-06-22T01:47:18;96344.56;;;19.16;100.00
41334;BME280;27078;46.428;6.256;2023-06-22T01:49:44;96334.69;;;19.16;100.00
41334;BME280;27078;46.428;6.256;2023-06-22T01:52:10;96344.88;;;19.06;100.00
41334;BME280;27078;46.428;6.256;2023-06-22T01:54:37;96329.22;;;19.03;100.00
41334;BME280;27078;46.428;6.256;2023-06-22T01:57:03;96322.22;;;19.02;100.00
41334;BME280;27078;46.428;6.256;2023-06-22T01:59:34;96330.22;;;19.02;100.00
41334;BME280;27078;46.428;6.256;2023-06-22T02:02:08;96326.97;;;19.06;100.00
41334;BME280;27078;46.428;6.256;2023-06-22T02:08:10;96319.72;;;19.00;100.00
41334;BME280;27078;46.428;6.256;2023-06-22T02:10:38;96326.88;;;18.93;100.00
41334;BME280;27078;46.428;6.256;2023-06-22T02:13:07;96322.50;;;18.92;100.00
41334;BME280;27078;46.428;6.256;2023-06-22T02:15:33;96322.47;;;18.85;100.00
41334;BME280;27078;46.428;6.256;2023-06-22T02:17:59;96316.34;;;18.91;100.00
41334;BME280;27078;46.428;6.256;2023-06-22T02:20:25;96318.44;;;18.96;100.00
41334;BME280;27078;46.428;6.256;2023-06-22T02:22:50;96306.03;;;18.88;100.00
41334;BME280;27078;46.428;6.256;2023-06-22T02:25:16;96301.00;;;18.79;100.00
41334;BME280;27078;46.428;6.256;2023-06-22T02:27:41;96312.16;;;18.82;100.00
41334;BME280;27078;46.428;6.256;2023-06-22T02:30:08;96317.50;;;18.82;100.00
41334;BME280;27078;46.428;6.256;2023-06-22T02:32:34;96306.81;;;18.82;100.00
41334;BME280;27078;46.428;6.256;2023-06-22T02:35:00;96309.38;;;18.76;100.00
41334;BME280;27078;46.428;6.256;2023-06-22T02:37:29;96316.31;;;18.70;100.00
41334;BME280;27078;46.428;6.256;2023-06-22T02:39:54;96315.28;;;18.71;100.00
41334;BME280;27078;46.428;6.256;2023-06-22T02:42:20;96312.81;;;18.69;100.00
41334;BME280;27078;46.428;6.256;2023-06-22T02:44:46;96322.25;;;18.65;100.00
41334;BME280;27078;46.428;6.256;2023-06-22T02:47:12;96328.41;;;18.66;100.00
41334;BME280;27078;46.428;6.256;2023-06-22T02:49:37;96328.41;;;18.66;100.00
41334;BME280;27078;46.428;6.256;2023-06-22T02:52:03;96312.38;;;18.66;100.00
41334;BME280;27078;46.428;6.256;2023-06-22T02:54:29;96306.56;;;18.62;100.00
41334;BME280;27078;46.428;6.256;2023-06-22T02:56:54;96308.41;;;18.62;100.00
41334;BME280;27078;46.428;6.256;2023-06-22T02:59:19;96302.59;;;18.58;100.00
41334;BME280;27078;46.428;6.256;2023-06-22T03:01:51;96310.84;;;18.57;100.00
41334;BME280;27078;46.428;6.256;2023-06-22T03:04:17;96311.19;;;18.54;100.00
41334;BME280;27078;46.428;6.256;2023-06-22T03:06:43;96297.41;;;18.50;100.00
41334;BME280;27078;46.428;6.256;2023-06-22T03:09:08;96292.06;;;18.50;100.00
41334;BME280;27078;46.428;6.256;2023-06-22T03:11:34;96304.41;;;18.51;100.00
41334;BME280;27078;46.428;6.256;2023-06-22T03:14:00;96308.38;;;18.40;100.00
41334;BME280;27078;46.428;6.256;2023-06-22T03:16:26;96303.03;;;18.40;100.00
41334;BME280;27078;46.428;6.256;2023-06-22T03:18:51;96311.31;;;18.45;100.00
41334;BME280;27078;46.428;6.256;2023-06-22T03:21:19;96315.03;;;18.44;100.00
41334;BME280;27078;46.428;6.256;2023-06-22T03:23:44;96312.97;;;18.46;100.00
41334;BME280;27078;46.428;6.256;2023-06-22T03:26:10;96308.91;;;18.50;100.00
41334;BME280;27078;46.428;6.256;2023-06-22T03:28:36;96312.59;;;18.49;100.00
41334;BME280;27078;46.428;6.256;2023-06-22T03:31:03;96308.91;;;18.50;100.00
41334;BME280;27078;46.428;6.256;2023-06-22T03:33:28;96311.94;;;18.47;100.00
41334;BME280;27078;46.428;6.256;2023-06-22T03:35:53;96311.31;;;18.45;100.00
41334;BME280;27078;46.428;6.256;2023-06-22T03:38:19;96309.09;;;18.49;100.00
41334;BME280;27078;46.428;6.256;2023-06-22T03:40:44;96308.63;;;18.45;100.00
41334;BME280;27078;46.428;6.256;2023-06-22T03:43:10;96297.94;;;18.45;100.00
41334;BME280;27078;46.428;6.256;2023-06-22T03:45:35;96305.59;;;18.48;100.00
41334;BME280;27078;46.428;6.256;2023-06-22T03:48:01;96310.56;;;18.51;100.00
41334;BME280;27078;46.428;6.256;2023-06-22T03:50:26;96295.38;;;18.52;100.00
41334;BME280;27078;46.428;6.256;2023-06-22T03:52:52;96295.72;;;18.49;100.00
41334;BME280;27078;46.428;6.256;2023-06-22T03:55:19;96294.91;;;18.48;100.00
41334;BME280;27078;46.428;6.256;2023-06-22T03:57:44;96302.66;;;18.43;100.00
41334;BME280;27078;46.428;6.256;2023-06-22T04:00:10;96304.63;;;18.35;100.00
41334;BME280;27078;46.428;6.256;2023-06-22T04:02:36;96296.16;;;18.31;100.00
41334;BME280;27078;46.428;6.256;2023-06-22T04:05:01;96332.19;;;18.35;100.00
41334;BME280;27078;46.428;6.256;2023-06-22T04:07:27;96332.94;;;18.29;100.00
41334;BME280;27078;46.428;6.256;2023-06-22T04:09:52;96339.94;;;18.30;100.00
41334;BME280;27078;46.428;6.256;2023-06-22T04:12:17;96336.34;;;18.38;100.00
41334;BME280;27078;46.428;6.256;2023-06-22T04:14:43;96336.41;;;18.44;100.00
41334;BME280;27078;46.428;6.256;2023-06-22T04:17:08;96351.94;;;18.56;100.00
41334;BME280;27078;46.428;6.256;2023-06-22T04:19:33;96351.31;;;18.54;100.00
41334;BME280;27078;46.428;6.256;2023-06-22T04:21:59;96365.31;;;18.56;100.00
41334;BME280;27078;46.428;6.256;2023-06-22T04:24:24;96374.56;;;18.53;100.00
41334;BME280;27078;46.428;6.256;2023-06-22T04:26:49;96379.44;;;18.49;100.00
41334;BME280;27078;46.428;6.256;2023-06-22T04:29:20;96396.75;;;18.54;100.00
41334;BME280;27078;46.428;6.256;2023-06-22T04:31:45;96399.44;;;18.54;100.00
41334;BME280;27078;46.428;6.256;2023-06-22T04:34:16;96383.28;;;18.62;100.00
41334;BME280;27078;46.428;6.256;2023-06-22T04:36:41;96360.97;;;18.69;100.00
41334;BME280;27078;46.428;6.256;2023-06-22T04:39:09;96394.44;;;18.80;100.00
41334;BME280;27078;46.428;6.256;2023-06-22T04:41:38;96434.06;;;18.91;100.00
41334;BME280;27078;46.428;6.256;2023-06-22T04:44:10;96493.28;;;19.03;100.00
41334;BME280;27078;46.428;6.256;2023-06-22T04:46:36;96517.06;;;19.13;100.00
41334;BME280;27078;46.428;6.256;2023-06-22T04:49:07;96501.28;;;19.18;100.00
41334;BME280;27078;46.428;6.256;2023-06-22T04:51:41;96502.34;;;19.24;100.00
41334;BME280;27078;46.428;6.256;2023-06-22T04:54:08;96496.00;;;19.25;100.00
41334;BME280;27078;46.428;6.256;2023-06-22T04:56:34;96477.31;;;19.10;100.00
41334;BME280;27078;46.428;6.256;2023-06-22T04:58:59;96521.41;;;19.14;100.00
41334;BME280;27078;46.428;6.256;2023-06-22T05:01:25;96494.94;;;19.04;100.00
41334;BME280;27078;46.428;6.256;2023-06-22T05:03:51;96511.28;;;19.09;100.00
41334;BME280;27078;46.428;6.256;2023-06-22T05:06:21;96542.44;;;19.17;100.00
41334;BME280;27078;46.428;6.256;2023-06-22T05:08:46;96533.66;;;19.23;100.00
41334;BME280;27078;46.428;6.256;2023-06-22T05:11:12;96561.34;;;19.30;100.00
41334;BME280;27078;46.428;6.256;2023-06-22T05:13:37;96560.97;;;19.33;100.00
41334;BME280;27078;46.428;6.256;2023-06-22T05:16:03;96564.91;;;19.38;100.00
41334;BME280;27078;46.428;6.256;2023-06-22T05:18:29;96574.06;;;19.43;100.00
41334;BME280;27078;46.428;6.256;2023-06-22T05:20:55;96599.50;;;19.54;100.00
41334;BME280;27078;46.428;6.256;2023-06-22T05:23:20;96608.91;;;19.65;100.00
41334;BME280;27078;46.428;6.256;2023-06-22T05:25:46;96602.59;;;19.72;100.00
41334;BME280;27078;46.428;6.256;2023-06-22T05:28:11;96608.44;;;19.61;100.00
41334;BME280;27078;46.428;6.256;2023-06-22T05:30:37;96584.44;;;19.53;100.00
41334;BME280;27078;46.428;6.256;2023-06-22T05:33:03;96583.50;;;19.61;100.00
41334;BME280;27078;46.428;6.256;2023-06-22T05:35:28;96596.25;;;19.59;100.00
41334;BME280;27078;46.428;6.256;2023-06-22T05:37:54;96558.69;;;19.52;100.00
41334;BME280;27078;46.428;6.256;2023-06-22T05:40:20;96579.38;;;19.58;100.00
41334;BME280;27078;46.428;6.256;2023-06-22T05:42:46;96580.63;;;19.77;100.00
41334;BME280;27078;46.428;6.256;2023-06-22T05:45:12;96578.00;;;19.84;100.00
41334;BME280;27078;46.428;6.256;2023-06-22T05:47:37;96589.72;;;19.83;100.00
41334;BME280;27078;46.428;6.256;2023-06-22T05:50:03;96547.44;;;19.78;100.00
41334;BME280;27078;46.428;6.256;2023-06-22T05:52:32;96571.81;;;19.83;100.00
41334;BME280;27078;46.428;6.256;2023-06-22T05:54:57;96542.06;;;19.57;100.00
41334;BME280;27078;46.428;6.256;2023-06-22T05:57:22;96542.06;;;19.57;100.00
41334;BME280;27078;46.428;6.256;2023-06-22T05:59:48;96529.53;;;19.64;100.00
41334;BME280;27078;46.428;6.256;2023-06-22T06:02:13;96537.69;;;19.56;100.00
41334;BME280;27078;46.428;6.256;2023-06-22T06:04:39;96570.47;;;19.72;100.00
41334;BME280;27078;46.428;6.256;2023-06-22T06:07:04;96568.25;;;19.61;100.00
41334;BME280;27078;46.428;6.256;2023-06-22T06:09:30;96561.13;;;19.68;100.00
41334;BME280;27078;46.428;6.256;2023-06-22T06:11:55;96562.31;;;19.81;100.00
41334;BME280;27078;46.428;6.256;2023-06-22T06:14:21;96570.16;;;19.82;100.00
41334;BME280;27078;46.428;6.256;2023-06-22T06:16:46;96551.22;;;19.84;100.00
41334;BME280;27078;46.428;6.256;2023-06-22T06:19:11;96528.16;;;19.89;100.00
41334;BME280;27078;46.428;6.256;2023-06-22T06:21:37;96527.13;;;20.12;100.00
41334;BME280;27078;46.428;6.256;2023-06-22T06:24:02;96523.66;;;20.18;100.00
41334;BME280;27078;46.428;6.256;2023-06-22T06:26:27;96509.31;;;20.04;100.00
41334;BME280;27078;46.428;6.256;2023-06-22T06:28:55;96492.25;;;19.84;100.00
41334;BME280;27078;46.428;6.256;2023-06-22T06:31:21;96485.09;;;19.91;100.00
41334;BME280;27078;46.428;6.256;2023-06-22T06:33:46;96484.19;;;20.05;100.00
41334;BME280;27078;46.428;6.256;2023-06-22T06:36:12;96494.25;;;20.31;100.00
41334;BME280;27078;46.428;6.256;2023-06-22T06:38:37;96493.63;;;20.58;100.00
41334;BME280;27078;46.428;6.256;2023-06-22T06:41:03;96489.00;;;20.80;100.00
41334;BME280;27078;46.428;6.256;2023-06-22T06:43:28;96506.41;;;20.97;100.00
41334;BME280;27078;46.428;6.256;2023-06-22T06:45:53;96501.06;;;21.04;100.00
41334;BME280;27078;46.428;6.256;2023-06-22T06:48:19;96499.63;;;21.08;100.00
41334;BME280;27078;46.428;6.256;2023-06-22T06:50:44;96479.84;;;21.15;100.00
41334;BME280;27078;46.428;6.256;2023-06-22T06:53:10;96487.72;;;21.30;100.00
41334;BME280;27078;46.428;6.256;2023-06-22T06:55:36;96483.81;;;21.40;100.00
41334;BME280;27078;46.428;6.256;2023-06-22T06:58:02;96473.06;;;21.33;100.00
41334;BME280;27078;46.428;6.256;2023-06-22T07:00:29;96506.53;;;21.30;100.00
41334;BME280;27078;46.428;6.256;2023-06-22T07:02:54;96523.44;;;21.24;100.00
41334;BME280;27078;46.428;6.256;2023-06-22T07:05:20;96530.47;;;21.25;100.00
41334;BME280;27078;46.428;6.256;2023-06-22T07:07:45;96510.47;;;21.34;100.00
41334;BME280;27078;46.428;6.256;2023-06-22T07:10:11;96520.41;;;21.41;100.00
41334;BME280;27078;46.428;6.256;2023-06-22T07:12:36;96509.50;;;21.49;100.00
41334;BME280;27078;46.428;6.256;2023-06-22T07:15:06;96504.34;;;21.67;100.00
41334;BME280;27078;46.428;6.256;2023-06-22T07:17:35;96507.06;;;21.87;100.00
41334;BME280;27078;46.428;6.256;2023-06-22T07:20:01;96495.28;;;22.08;100.00
41334;BME280;27078;46.428;6.256;2023-06-22T07:22:27;96493.66;;;22.27;100.00
41334;BME280;27078;46.428;6.256;2023-06-22T07:24:52;96530.47;;;22.40;100.00
41334;BME280;27078;46.428;6.256;2023-06-22T07:27:18;96491.56;;;22.36;100.00
41334;BME280;27078;46.428;6.256;2023-06-22T07:29:46;96499.41;;;22.44;100.00
41334;BME280;27078;46.428;6.256;2023-06-22T07:32:12;96475.41;;;22.09;100.00
41334;BME280;27078;46.428;6.256;2023-06-22T07:34:37;96468.19;;;21.96;100.00
41334;BME280;27078;46.428;6.256;2023-06-22T07:37:03;96473.13;;;22.20;100.00
41334;BME280;27078;46.428;6.256;2023-06-22T07:39:30;96474.59;;;22.42;100.00
41334;BME280;27078;46.428;6.256;2023-06-22T07:41:55;96462.09;;;22.68;100.00
41334;BME280;27078;46.428;6.256;2023-06-22T07:44:20;96460.56;;;22.85;100.00
41334;BME280;27078;46.428;6.256;2023-06-22T07:46:45;96459.91;;;22.38;100.00
41334;BME280;27078;46.428;6.256;2023-06-22T07:49:11;96458.47;;;22.29;100.00
41334;BME280;27078;46.428;6.256;2023-06-22T07:51:36;96444.38;;;22.40;100.00
41334;BME280;27078;46.428;6.256;2023-06-22T07:54:02;96427.00;;;22.36;100.00
41334;BME280;27078;46.428;6.256;2023-06-22T07:56:27;96422.47;;;22.16;100.00
41334;BME280;27078;46.428;6.256;2023-06-22T07:58:53;96415.88;;;22.12;100.00
41334;BME280;27078;46.428;6.256;2023-06-22T08:01:18;96417.88;;;22.50;100.00
41334;BME280;27078;46.428;6.256;2023-06-22T08:03:49;96411.81;;;22.62;100.00
41334;BME280;27078;46.428;6.256;2023-06-22T08:06:14;96411.56;;;22.70;100.00
41334;BME280;27078;46.428;6.256;2023-06-22T08:08:40;96398.97;;;23.09;100.00
41334;BME280;27078;46.428;6.256;2023-06-22T08:11:05;96397.00;;;23.29;100.00
41334;BME280;27078;46.428;6.256;2023-06-22T08:13:31;96389.09;;;23.60;100.00
41334;BME280;27078;46.428;6.256;2023-06-22T08:15:56;96390.19;;;23.84;100.00
41334;BME280;27078;46.428;6.256;2023-06-22T08:18:22;96395.38;;;24.04;100.00
41334;BME280;27078;46.428;6.256;2023-06-22T08:20:47;96389.41;;;24.20;100.00
41334;BME280;27078;46.428;6.256;2023-06-22T08:23:13;96387.81;;;24.31;100.00
41334;BME280;27078;46.428;6.256;2023-06-22T08:25:38;96376.75;;;24.39;100.00
41334;BME280;27078;46.428;6.256;2023-06-22T08:28:04;96369.28;;;24.60;100.00
41334;BME280;27078;46.428;6.256;2023-06-22T08:30:30;96375.69;;;24.58;100.00
41334;BME280;27078;46.428;6.256;2023-06-22T08:32:55;96363.81;;;24.78;100.00
41334;BME280;27078;46.428;6.256;2023-06-22T08:35:24;96371.81;;;24.85;100.00
41334;BME280;27078;46.428;6.256;2023-06-22T08:37:49;96369.69;;;24.75;100.00
41334;BME280;27078;46.428;6.256;2023-06-22T08:40:18;96378.97;;;24.79;100.00
41334;BME280;27078;46.428;6.256;2023-06-22T08:42:45;96393.00;;;24.69;100.00
41334;BME280;27078;46.428;6.256;2023-06-22T08:45:10;96370.22;;;24.95;100.00
41334;BME280;27078;46.428;6.256;2023-06-22T08:47:36;96364.03;;;25.25;100.00
41334;BME280;27078;46.428;6.256;2023-06-22T08:50:01;96370.53;;;25.48;100.00
41334;BME280;27078;46.428;6.256;2023-06-22T08:52:28;96369.59;;;25.54;100.00
41334;BME280;27078;46.428;6.256;2023-06-22T08:54:53;96374.47;;;25.22;100.00
41334;BME280;27078;46.428;6.256;2023-06-22T08:57:19;96377.28;;;24.96;100.00
41334;BME280;27078;46.428;6.256;2023-06-22T08:59:44;96379.03;;;24.91;100.00
41334;BME280;27078;46.428;6.256;2023-06-22T09:02:09;96384.50;;;24.84;100.00
41334;BME280;27078;46.428;6.256;2023-06-22T09:04:35;96401.19;;;24.81;100.00
41334;BME280;27078;46.428;6.256;2023-06-22T09:07:02;96408.44;;;24.81;100.00
41334;BME280;27078;46.428;6.256;2023-06-22T09:09:27;96423.66;;;24.93;100.00
41334;BME280;27078;46.428;6.256;2023-06-22T09:11:53;96422.59;;;24.94;100.00
41334;BME280;27078;46.428;6.256;2023-06-22T09:14:18;96427.72;;;24.84;100.00
41334;BME280;27078;46.428;6.256;2023-06-22T09:16:43;96427.53;;;24.97;100.00
41334;BME280;27078;46.428;6.256;2023-06-22T09:19:09;96432.50;;;24.82;100.00
41334;BME280;27078;46.428;6.256;2023-06-22T09:21:34;96442.41;;;24.70;100.00
41334;BME280;27078;46.428;6.256;2023-06-22T09:24:00;96443.91;;;24.84;100.00
41334;BME280;27078;46.428;6.256;2023-06-22T09:26:25;96464.44;;;25.04;100.00
41334;BME280;27078;46.428;6.256;2023-06-22T09:28:51;96470.56;;;24.62;100.00
41334;BME280;27078;46.428;6.256;2023-06-22T09:31:16;96483.50;;;24.72;100.00
41334;BME280;27078;46.428;6.256;2023-06-22T09:33:42;96482.41;;;24.79;100.00
41334;BME280;27078;46.428;6.256;2023-06-22T09:36:08;96493.72;;;24.70;100.00
41334;BME280;27078;46.428;6.256;2023-06-22T09:38:37;96491.41;;;24.73;100.00
41334;BME280;27078;46.428;6.256;2023-06-22T09:41:03;96500.84;;;24.64;100.00
41334;BME280;27078;46.428;6.256;2023-06-22T09:43:29;96498.66;;;24.54;100.00
41334;BME280;27078;46.428;6.256;2023-06-22T09:45:54;96495.97;;;24.73;100.00
41334;BME280;27078;46.428;6.256;2023-06-22T09:48:20;96507.16;;;24.76;100.00
41334;BME280;27078;46.428;6.256;2023-06-22T09:50:45;96519.53;;;24.84;100.00
41334;BME280;27078;46.428;6.256;2023-06-22T09:53:10;96524.53;;;24.81;100.00
41334;BME280;27078;46.428;6.256;2023-06-22T09:55:36;96523.13;;;24.78;100.00
41334;BME280;27078;46.428;6.256;2023-06-22T09:58:01;96524.84;;;24.54;100.00
41334;BME280;27078;46.428;6.256;2023-06-22T10:00:26;96524.03;;;24.47;100.00
41334;BME280;27078;46.428;6.256;2023-06-22T10:02:53;96526.63;;;24.35;100.00
41334;BME280;27078;46.428;6.256;2023-06-22T10:05:18;96536.50;;;24.23;100.00
41334;BME280;27078;46.428;6.256;2023-06-22T10:07:44;96545.72;;;24.08;100.00
41334;BME280;27078;46.428;6.256;2023-06-22T10:10:12;96540.06;;;24.16;100.00
41334;BME280;27078;46.428;6.256;2023-06-22T10:12:42;96550.75;;;24.30;100.00
41334;BME280;27078;46.428;6.256;2023-06-22T10:15:08;96538.78;;;24.19;100.00
41334;BME280;27078;46.428;6.256;2023-06-22T10:17:33;96543.09;;;24.02;100.00
41334;BME280;27078;46.428;6.256;2023-06-22T10:20:00;96548.63;;;23.82;100.00
41334;BME280;27078;46.428;6.256;2023-06-22T10:22:30;96524.94;;;23.52;100.00
41334;BME280;27078;46.428;6.256;2023-06-22T10:24:55;96517.84;;;23.57;100.00
41334;BME280;27078;46.428;6.256;2023-06-22T10:27:21;96540.75;;;23.80;100.00
41334;BME280;27078;46.428;6.256;2023-06-22T10:29:46;96532.50;;;24.00;100.00
41334;BME280;27078;46.428;6.256;2023-06-22T10:32:11;96520.28;;;23.97;100.00
41334;BME280;27078;46.428;6.256;2023-06-22T10:34:37;96513.31;;;23.90;100.00
41334;BME280;27078;46.428;6.256;2023-06-22T10:37:02;96517.13;;;23.75;100.00
41334;BME280;27078;46.428;6.256;2023-06-22T10:39:27;96516.75;;;23.65;100.00
41334;BME280;27078;46.428;6.256;2023-06-22T10:41:53;96523.53;;;23.74;100.00
41334;BME280;27078;46.428;6.256;2023-06-22T10:44:18;96521.94;;;23.67;100.00
41334;BME280;27078;46.428;6.256;2023-06-22T10:46:43;96510.50;;;23.71;100.00
41334;BME280;27078;46.428;6.256;2023-06-22T10:49:09;96513.13;;;23.85;100.00
41334;BME280;27078;46.428;6.256;2023-06-22T10:51:34;96504.16;;;23.91;100.00
41334;BME280;27078;46.428;6.256;2023-06-22T10:53:59;96514.47;;;24.01;100.00
41334;BME280;27078;46.428;6.256;2023-06-22T10:56:25;96542.06;;;24.28;100.00
41334;BME280;27078;46.428;6.256;2023-06-22T10:58:50;96544.84;;;24.39;100.00
41334;BME280;27078;46.428;6.256;2023-06-22T11:01:15;96534.44;;;24.43;100.00
41334;BME280;27078;46.428;6.256;2023-06-22T11:03:41;96537.72;;;24.52;100.00
41334;BME280;27078;46.428;6.256;2023-06-22T11:06:06;96512.97;;;24.30;100.00
41334;BME280;27078;46.428;6.256;2023-06-22T11:08:31;96476.16;;;24.17;100.00
41334;BME280;27078;46.428;6.256;2023-06-22T11:10:57;96486.59;;;24.32;100.00
41334;BME280;27078;46.428;6.256;2023-06-22T11:13:22;96502.13;;;24.36;100.00
41334;BME280;27078;46.428;6.256;2023-06-22T11:15:47;96507.16;;;24.58;100.00
41334;BME280;27078;46.428;6.256;2023-06-22T11:18:13;96507.81;;;24.90;100.00
41334;BME280;27078;46.428;6.256;2023-06-22T11:20:38;96529.72;;;25.01;100.00
41334;BME280;27078;46.428;6.256;2023-06-22T11:23:07;96511.72;;;25.13;100.00
41334;BME280;27078;46.428;6.256;2023-06-22T11:25:32;96491.03;;;25.25;100.00
41334;BME280;27078;46.428;6.256;2023-06-22T11:28:01;96492.84;;;25.43;100.00
41334;BME280;27078;46.428;6.256;2023-06-22T11:30:27;96492.53;;;25.21;100.00
41334;BME280;27078;46.428;6.256;2023-06-22T11:32:52;96471.72;;;25.52;100.00
41334;BME280;27078;46.428;6.256;2023-06-22T11:35:18;96460.03;;;25.70;100.00
41334;BME280;27078;46.428;6.256;2023-06-22T11:37:43;96457.41;;;26.05;100.00
41334;BME280;27078;46.428;6.256;2023-06-22T11:40:09;96454.13;;;26.15;100.00
41334;BME280;27078;46.428;6.256;2023-06-22T11:42:35;96467.41;;;26.05;100.00
41334;BME280;27078;46.428;6.256;2023-06-22T11:45:00;96501.41;;;26.12;100.00
41334;BME280;27078;46.428;6.256;2023-06-22T11:47:26;96509.53;;;26.12;100.00
41334;BME280;27078;46.428;6.256;2023-06-22T11:49:52;96518.22;;;26.26;100.00
41334;BME280;27078;46.428;6.256;2023-06-22T11:52:17;96516.81;;;26.24;100.00
41334;BME280;27078;46.428;6.256;2023-06-22T11:54:43;96475.41;;;26.11;100.00
41334;BME280;27078;46.428;6.256;2023-06-22T11:57:08;96477.66;;;25.72;100.00
41334;BME280;27078;46.428;6.256;2023-06-22T11:59:34;96465.03;;;25.54;100.00
41334;BME280;27078;46.428;6.256;2023-06-22T12:01:59;96472.84;;;25.32;100.00
41334;BME280;27078;46.428;6.256;2023-06-22T12:04:25;96475.84;;;25.24;100.00
41334;BME280;27078;46.428;6.256;2023-06-22T12:06:50;96486.56;;;25.61;100.00
41334;BME280;27078;46.428;6.256;2023-06-22T12:09:15;96499.16;;;25.67;100.00
41334;BME280;27078;46.428;6.256;2023-06-22T12:11:41;96495.41;;;26.10;100.00
41334;BME280;27078;46.428;6.256;2023-06-22T12:14:06;96498.97;;;26.23;100.00
41334;BME280;27078;46.428;6.256;2023-06-22T12:16:31;96501.19;;;26.49;100.00
41334;BME280;27078;46.428;6.256;2023-06-22T12:18:57;96510.16;;;26.62;100.00
41334;BME280;27078;46.428;6.256;2023-06-22T12:21:22;96503.81;;;26.68;100.00
41334;BME280;27078;46.428;6.256;2023-06-22T12:23:47;96490.97;;;27.27;100.00
41334;BME280;27078;46.428;6.256;2023-06-22T12:26:13;96494.09;;;27.48;100.00
41334;BME280;27078;46.428;6.256;2023-06-22T12:28:38;96507.25;;;27.56;100.00
41334;BME280;27078;46.428;6.256;2023-06-22T12:31:03;96508.31;;;27.55;100.00
41334;BME280;27078;46.428;6.256;2023-06-22T12:33:29;96504.56;;;27.73;100.00
41334;BME280;27078;46.428;6.256;2023-06-22T12:35:55;96489.78;;;27.80;100.00
41334;BME280;27078;46.428;6.256;2023-06-22T12:38:21;96484.13;;;27.82;100.00
41334;BME280;27078;46.428;6.256;2023-06-22T12:40:46;96478.41;;;28.12;100.00
41334;BME280;27078;46.428;6.256;2023-06-22T12:43:12;96473.44;;;28.43;100.00
41334;BME280;27078;46.428;6.256;2023-06-22T12:45:37;96476.34;;;28.19;100.00
41334;BME280;27078;46.428;6.256;2023-06-22T12:48:03;96466.34;;;28.42;100.00
41334;BME280;27078;46.428;6.256;2023-06-22T12:50:28;96458.81;;;28.27;100.00